sensor_id;sensor_type;location;lat;lon;timestamp;pressure;altitude;pressure_sealevel;temperature;humidity
3428;BME280;1727;42.624;23.406;2022-08-21T00:00:21;94335.63;;;20.49;100.00
3428;BME280;1727;42.624;23.406;2022-08-21T00:02:51;94326.19;;;20.47;100.00
3428;BME280;1727;42.624;23.406;2022-08-21T00:05:19;94322.91;;;20.51;100.00
3428;BME280;1727;42.624;23.406;2022-08-21T00:07:46;94315.16;;;20.56;100.00
3428;BME280;1727;42.624;23.406;2022-08-21T00:10:13;94321.69;;;20.67;100.00
3428;BME280;1727;42.624;23.406;2022-08-21T00:12:41;94316.97;;;20.76;100.00
3428;BME280;1727;42.624;23.406;2022-08-21T00:15:09;94307.75;;;20.85;100.00
3428;BME280;1727;42.624;23.406;2022-08-21T00:17:38;94308.16;;;20.88;100.00
3428;BME280;1727;42.624;23.406;2022-08-21T00:20:07;94313.06;;;20.91;100.00
3428;BME280;1727;42.624;23.406;2022-08-21T00:22:35;94304.84;;;20.93;100.00
3428;BME280;1727;42.624;23.406;2022-08-21T00:25:03;94304.44;;;20.96;100.00
3428;BME280;1727;42.624;23.406;2022-08-21T00:27:30;94306.69;;;20.99;100.00
3428;BME280;1727;42.624;23.406;2022-08-21T00:29:57;94310.16;;;21.06;100.00
3428;BME280;1727;42.624;23.406;2022-08-21T00:32:25;94309.34;;;21.12;100.00
3428;BME280;1727;42.624;23.406;2022-08-21T00:34:54;94309.53;;;21.17;100.00
3428;BME280;1727;42.624;23.406;2022-08-21T00:37:21;94308.06;;;21.21;100.00
3428;BME280;1727;42.624;23.406;2022-08-21T00:39:48;94301.94;;;21.14;100.00
3428;BME280;1727;42.624;23.406;2022-08-21T00:42:15;94309.34;;;21.12;100.00
3428;BME280;1727;42.624;23.406;2022-08-21T00:44:43;94306.88;;;21.11;100.00
3428;BME280;1727;42.624;23.406;2022-08-21T00:47:10;94307.28;;;21.14;100.00
3428;BME280;1727;42.624;23.406;2022-08-21T00:49:37;94309.56;;;21.11;100.00
3428;BME280;1727;42.624;23.406;2022-08-21T00:52:09;94316.72;;;21.17;100.00
3428;BME280;1727;42.624;23.406;2022-08-21T00:54:39;94316.28;;;21.20;100.00
3428;BME280;1727;42.624;23.406;2022-08-21T00:57:11;94310.53;;;21.23;100.00
3428;BME280;1727;42.624;23.406;2022-08-21T00:59:40;94309.13;;;21.27;100.00
3428;BME280;1727;42.624;23.406;2022-08-21T01:02:09;94309.31;;;21.25;100.00
3428;BME280;1727;42.624;23.406;2022-08-21T01:04:36;94308.09;;;21.28;100.00
3428;BME280;1727;42.624;23.406;2022-08-21T01:07:04;94302.31;;;21.31;100.00
3428;BME280;1727;42.624;23.406;2022-08-21T01:09:32;94298.63;;;21.32;100.00
3428;BME280;1727;42.624;23.406;2022-08-21T01:12:00;94289.78;;;21.31;100.00
3428;BME280;1727;42.624;23.406;2022-08-21T01:14:27;94293.72;;;21.29;100.00
3428;BME280;1727;42.624;23.406;2022-08-21T01:16:56;94287.97;;;21.25;100.00
3428;BME280;1727;42.624;23.406;2022-08-21T01:19:25;94290.22;;;21.22;100.00
3428;BME280;1727;42.624;23.406;2022-08-21T01:21:53;94290.66;;;21.25;100.00
3428;BME280;1727;42.624;23.406;2022-08-21T01:24:21;94281.19;;;21.23;100.00
3428;BME280;1727;42.624;23.406;2022-08-21T01:26:49;94282.22;;;21.22;100.00
3428;BME280;1727;42.624;23.406;2022-08-21T01:29:25;94290.03;;;21.23;100.00
3428;BME280;1727;42.624;23.406;2022-08-21T01:31:53;94289.59;;;21.20;100.00
3428;BME280;1727;42.624;23.406;2022-08-21T01:34:20;94287.53;;;21.22;100.00
3428;BME280;1727;42.624;23.406;2022-08-21T01:36:47;94285.91;;;21.21;100.00
3428;BME280;1727;42.624;23.406;2022-08-21T01:39:16;94290.63;;;21.19;100.00
3428;BME280;1727;42.624;23.406;2022-08-21T01:41:43;94289.63;;;21.13;100.00
3428;BME280;1727;42.624;23.406;2022-08-21T01:44:10;94284.09;;;21.15;100.00
3428;BME280;1727;42.624;23.406;2022-08-21T01:46:36;94287.34;;;21.17;100.00
3428;BME280;1727;42.624;23.406;2022-08-21T01:49:03;94285.72;;;21.16;100.00
3428;BME280;1727;42.624;23.406;2022-08-21T01:51:30;94294.97;;;21.13;100.00
3428;BME280;1727;42.624;23.406;2022-08-21T01:53:57;94293.72;;;21.09;100.00
3428;BME280;1727;42.624;23.406;2022-08-21T01:56:26;94293.72;;;21.09;100.00
3428;BME280;1727;42.624;23.406;2022-08-21T01:58:53;94292.94;;;21.02;100.00
3428;BME280;1727;42.624;23.406;2022-08-21T02:01:20;94291.69;;;21.04;100.00
3428;BME280;1727;42.624;23.406;2022-08-21T02:03:46;94291.28;;;21.01;100.00
3428;BME280;1727;42.624;23.406;2022-08-21T02:06:15;94292.09;;;21.01;100.00
3428;BME280;1727;42.624;23.406;2022-08-21T02:08:43;94294.78;;;21.01;100.00
3428;BME280;1727;42.624;23.406;2022-08-21T02:11:10;94296.41;;;21.02;100.00
3428;BME280;1727;42.624;23.406;2022-08-21T02:13:39;94302.78;;;21.01;100.00
3428;BME280;1727;42.624;23.406;2022-08-21T02:16:06;94301.97;;;21.01;100.00
3428;BME280;1727;42.624;23.406;2022-08-21T02:18:33;94307.28;;;21.01;100.00
3428;BME280;1727;42.624;23.406;2022-08-21T02:21:01;94300.53;;;20.98;100.00
3428;BME280;1727;42.624;23.406;2022-08-21T02:23:27;94299.50;;;20.99;100.00
3428;BME280;1727;42.624;23.406;2022-08-21T02:25:54;94312.84;;;20.99;100.00
3428;BME280;1727;42.624;23.406;2022-08-21T02:28:21;94308.31;;;21.00;100.00
3428;BME280;1727;42.624;23.406;2022-08-21T02:30:50;94314.28;;;20.95;100.00
3428;BME280;1727;42.624;23.406;2022-08-21T02:33:18;94314.28;;;20.95;100.00
3428;BME280;1727;42.624;23.406;2022-08-21T02:35:47;94311.81;;;20.94;100.00
3428;BME280;1727;42.624;23.406;2022-08-21T02:38:16;94320.66;;;20.94;100.00
3428;BME280;1727;42.624;23.406;2022-08-21T02:40:45;94321.06;;;20.91;100.00
3428;BME280;1727;42.624;23.406;2022-08-21T02:43:12;94318.81;;;20.88;100.00
3428;BME280;1727;42.624;23.406;2022-08-21T02:45:40;94311.03;;;20.87;100.00
3428;BME280;1727;42.624;23.406;2022-08-21T02:48:10;94315.13;;;20.83;100.00
3428;BME280;1727;42.624;23.406;2022-08-21T02:50:39;94319.66;;;20.82;100.00
3428;BME280;1727;42.624;23.406;2022-08-21T02:53:08;94322.31;;;20.82;100.00
3428;BME280;1727;42.624;23.406;2022-08-21T02:55:37;94320.03;;;20.79;100.00
3428;BME280;1727;42.624;23.406;2022-08-21T02:58:05;94318.59;;;20.77;100.00
3428;BME280;1727;42.624;23.406;2022-08-21T03:00:34;94315.94;;;20.70;100.00
3428;BME280;1727;42.624;23.406;2022-08-21T03:03:01;94314.50;;;20.67;100.00
3428;BME280;1727;42.624;23.406;2022-08-21T03:05:32;94319.66;;;20.69;100.00
3428;BME280;1727;42.624;23.406;2022-08-21T03:08:00;94316.78;;;20.64;100.00
3428;BME280;1727;42.624;23.406;2022-08-21T03:10:28;94322.53;;;20.61;100.00
3428;BME280;1727;42.624;23.406;2022-08-21T03:12:56;94319.88;;;20.54;100.00
3428;BME280;1727;42.624;23.406;2022-08-21T03:15:23;94315.53;;;20.47;100.00
3428;BME280;1727;42.624;23.406;2022-08-21T03:17:50;94310.19;;;20.47;100.00
3428;BME280;1727;42.624;23.406;2022-08-21T03:20:22;94308.97;;;20.49;100.00
3428;BME280;1727;42.624;23.406;2022-08-21T03:22:51;94307.34;;;20.55;100.00
3428;BME280;1727;42.624;23.406;2022-08-21T03:25:18;94311.66;;;20.56;100.00
3428;BME280;1727;42.624;23.406;2022-08-21T03:27:46;94307.75;;;20.58;100.00
3428;BME280;1727;42.624;23.406;2022-08-21T03:30:14;94312.69;;;20.61;100.00
3428;BME280;1727;42.624;23.406;2022-08-21T03:32:41;94321.06;;;20.52;100.00
3428;BME280;1727;42.624;23.406;2022-08-21T03:35:08;94316.38;;;20.54;100.00
3428;BME280;1727;42.624;23.406;2022-08-21T03:37:36;94326.59;;;20.50;100.00
3428;BME280;1727;42.624;23.406;2022-08-21T03:40:06;94323.31;;;20.48;100.00
3428;BME280;1727;42.624;23.406;2022-08-21T03:42:33;94332.06;;;20.22;100.00
3428;BME280;1727;42.624;23.406;2022-08-21T03:45:00;94325.72;;;20.10;100.00
3428;BME280;1727;42.624;23.406;2022-08-21T03:47:27;94330.00;;;19.98;100.00
3428;BME280;1727;42.624;23.406;2022-08-21T03:49:54;94321.53;;;19.68;100.00
3428;BME280;1727;42.624;23.406;2022-08-21T03:52:21;94324.72;;;19.15;100.00
3428;BME280;1727;42.624;23.406;2022-08-21T03:54:48;94323.69;;;19.10;100.00
3428;BME280;1727;42.624;23.406;2022-08-21T03:57:17;94331.91;;;19.22;100.00
3428;BME280;1727;42.624;23.406;2022-08-21T03:59:44;94335.75;;;19.12;100.00
3428;BME280;1727;42.624;23.406;2022-08-21T04:02:13;94349.38;;;19.03;100.00
3428;BME280;1727;42.624;23.406;2022-08-21T04:04:43;94334.69;;;19.07;100.00
3428;BME280;1727;42.624;23.406;2022-08-21T04:07:10;94336.63;;;19.26;100.00
3428;BME280;1727;42.624;23.406;2022-08-21T04:09:37;94340.44;;;19.45;100.00
3428;BME280;1727;42.624;23.406;2022-08-21T04:12:04;94324.53;;;19.58;100.00
3428;BME280;1727;42.624;23.406;2022-08-21T04:14:32;94331.16;;;19.69;100.00
3428;BME280;1727;42.624;23.406;2022-08-21T04:16:59;94331.59;;;19.79;100.00
3428;BME280;1727;42.624;23.406;2022-08-21T04:19:26;94332.22;;;19.88;100.00
3428;BME280;1727;42.624;23.406;2022-08-21T04:21:55;94331.38;;;19.87;100.00
3428;BME280;1727;42.624;23.406;2022-08-21T04:24:22;94334.06;;;19.94;100.00
3428;BME280;1727;42.624;23.406;2022-08-21T04:26:48;94336.94;;;19.92;100.00
3428;BME280;1727;42.624;23.406;2022-08-21T04:29:15;94330.63;;;20.00;100.00
3428;BME280;1727;42.624;23.406;2022-08-21T04:31:43;94336.78;;;20.14;100.00
3428;BME280;1727;42.624;23.406;2022-08-21T04:34:10;94334.97;;;20.34;100.00
3428;BME280;1727;42.624;23.406;2022-08-21T04:36:37;94324.56;;;20.46;100.00
3428;BME280;1727;42.624;23.406;2022-08-21T04:39:04;94323.56;;;20.60;100.00
3428;BME280;1727;42.624;23.406;2022-08-21T04:41:31;94319.84;;;20.61;100.00
3428;BME280;1727;42.624;23.406;2022-08-21T04:43:58;94327.03;;;20.67;100.00
3428;BME280;1727;42.624;23.406;2022-08-21T04:46:25;94324.34;;;20.73;100.00
3428;BME280;1727;42.624;23.406;2022-08-21T04:48:53;94327.44;;;20.77;100.00
3428;BME280;1727;42.624;23.406;2022-08-21T04:51:24;94322.69;;;20.92;100.00
3428;BME280;1727;42.624;23.406;2022-08-21T04:53:54;94330.00;;;21.50;100.00
3428;BME280;1727;42.624;23.406;2022-08-21T04:56:24;94328.56;;;21.92;97.63
3428;BME280;1727;42.624;23.406;2022-08-21T04:58:55;94324.41;;;22.41;94.96
3428;BME280;1727;42.624;23.406;2022-08-21T05:01:24;94320.50;;;22.68;92.32
3428;BME280;1727;42.624;23.406;2022-08-21T05:07:21;94330.38;;;23.17;88.87
3428;BME280;1727;42.624;23.406;2022-08-21T05:09:49;94331.88;;;23.32;88.93
3428;BME280;1727;42.624;23.406;2022-08-21T05:12:17;94326.69;;;23.55;88.18
3428;BME280;1727;42.624;23.406;2022-08-21T05:14:44;94329.00;;;23.88;88.41
3428;BME280;1727;42.624;23.406;2022-08-21T05:17:11;94330.28;;;24.16;85.99
3428;BME280;1727;42.624;23.406;2022-08-21T05:19:37;94319.31;;;24.47;84.44
3428;BME280;1727;42.624;23.406;2022-08-21T05:22:05;94323.81;;;24.77;82.56
3428;BME280;1727;42.624;23.406;2022-08-21T05:24:33;94332.06;;;25.05;81.03
3428;BME280;1727;42.624;23.406;2022-08-21T05:27:00;94340.94;;;25.17;77.27
3428;BME280;1727;42.624;23.406;2022-08-21T05:29:27;94333.44;;;25.43;78.41
3428;BME280;1727;42.624;23.406;2022-08-21T05:31:56;94335.88;;;25.56;77.74
3428;BME280;1727;42.624;23.406;2022-08-21T05:34:23;94330.97;;;25.64;77.39
3428;BME280;1727;42.624;23.406;2022-08-21T05:36:50;94335.16;;;25.60;77.89
3428;BME280;1727;42.624;23.406;2022-08-21T05:39:17;94332.03;;;25.52;75.77
3428;BME280;1727;42.624;23.406;2022-08-21T05:41:45;94324.09;;;25.33;77.25
3428;BME280;1727;42.624;23.406;2022-08-21T05:44:13;94319.91;;;25.14;78.26
3428;BME280;1727;42.624;23.406;2022-08-21T05:46:40;94318.28;;;25.13;79.44
3428;BME280;1727;42.624;23.406;2022-08-21T05:49:07;94313.16;;;25.23;80.22
3428;BME280;1727;42.624;23.406;2022-08-21T05:51:34;94315.00;;;24.99;80.80
3428;BME280;1727;42.624;23.406;2022-08-21T05:54:01;94318.13;;;24.96;80.38
3428;BME280;1727;42.624;23.406;2022-08-21T05:56:28;94313.38;;;25.10;80.17
3428;BME280;1727;42.624;23.406;2022-08-21T05:58:56;94308.56;;;25.12;81.46
3428;BME280;1727;42.624;23.406;2022-08-21T06:01:23;94309.81;;;24.75;82.20
3428;BME280;1727;42.624;23.406;2022-08-21T06:03:50;94312.31;;;24.34;82.04
3428;BME280;1727;42.624;23.406;2022-08-21T06:06:17;94315.28;;;23.96;84.11
3428;BME280;1727;42.624;23.406;2022-08-21T06:08:44;94307.31;;;23.90;86.29
3428;BME280;1727;42.624;23.406;2022-08-21T06:11:11;94306.97;;;23.86;87.08
3428;BME280;1727;42.624;23.406;2022-08-21T06:13:38;94303.78;;;24.07;87.96
3428;BME280;1727;42.624;23.406;2022-08-21T06:16:09;94310.09;;;24.13;86.24
3428;BME280;1727;42.624;23.406;2022-08-21T06:18:37;94299.84;;;24.40;86.00
3428;BME280;1727;42.624;23.406;2022-08-21T06:21:05;94302.59;;;24.75;84.28
3428;BME280;1727;42.624;23.406;2022-08-21T06:23:33;94311.03;;;25.02;82.90
3428;BME280;1727;42.624;23.406;2022-08-21T06:26:00;94310.44;;;25.35;81.78
3428;BME280;1727;42.624;23.406;2022-08-21T06:28:27;94315.66;;;25.77;79.99
3428;BME280;1727;42.624;23.406;2022-08-21T06:30:54;94310.97;;;25.84;78.44
3428;BME280;1727;42.624;23.406;2022-08-21T06:33:22;94307.63;;;26.05;76.02
3428;BME280;1727;42.624;23.406;2022-08-21T06:35:49;94311.31;;;26.16;75.64
3428;BME280;1727;42.624;23.406;2022-08-21T06:38:16;94312.63;;;25.73;75.49
3428;BME280;1727;42.624;23.406;2022-08-21T06:40:42;94319.91;;;25.49;76.86
3428;BME280;1727;42.624;23.406;2022-08-21T06:43:12;94324.22;;;25.50;75.98
3428;BME280;1727;42.624;23.406;2022-08-21T06:45:40;94330.16;;;25.52;77.84
3428;BME280;1727;42.624;23.406;2022-08-21T06:48:07;94332.03;;;25.75;75.53
3428;BME280;1727;42.624;23.406;2022-08-21T06:50:35;94332.50;;;26.12;74.94
3428;BME280;1727;42.624;23.406;2022-08-21T06:53:05;94332.94;;;26.49;74.17
3428;BME280;1727;42.624;23.406;2022-08-21T06:55:32;94335.09;;;26.81;72.11
3428;BME280;1727;42.624;23.406;2022-08-21T06:57:59;94331.19;;;26.72;70.74
3428;BME280;1727;42.624;23.406;2022-08-21T07:00:27;94334.78;;;26.61;71.02
3428;BME280;1727;42.624;23.406;2022-08-21T07:02:53;94336.56;;;26.72;71.48
3428;BME280;1727;42.624;23.406;2022-08-21T07:05:21;94332.09;;;26.94;71.65
3428;BME280;1727;42.624;23.406;2022-08-21T07:07:49;94333.09;;;27.05;71.42
3428;BME280;1727;42.624;23.406;2022-08-21T07:10:16;94338.38;;;27.16;72.75
3428;BME280;1727;42.624;23.406;2022-08-21T07:12:43;94334.06;;;27.15;69.63
3428;BME280;1727;42.624;23.406;2022-08-21T07:15:10;94331.13;;;27.17;69.69
3428;BME280;1727;42.624;23.406;2022-08-21T07:17:37;94335.63;;;27.11;68.16
3428;BME280;1727;42.624;23.406;2022-08-21T07:20:05;94331.97;;;27.01;69.25
3428;BME280;1727;42.624;23.406;2022-08-21T07:22:33;94323.31;;;26.53;69.89
3428;BME280;1727;42.624;23.406;2022-08-21T07:25:03;94322.59;;;26.30;68.80
3428;BME280;1727;42.624;23.406;2022-08-21T07:27:30;94315.16;;;26.48;71.16
3428;BME280;1727;42.624;23.406;2022-08-21T07:29:57;94321.47;;;26.71;68.05
3428;BME280;1727;42.624;23.406;2022-08-21T07:32:24;94316.19;;;27.09;66.83
3428;BME280;1727;42.624;23.406;2022-08-21T07:34:51;94312.75;;;27.48;68.28
3428;BME280;1727;42.624;23.406;2022-08-21T07:37:18;94316.56;;;27.52;64.23
3428;BME280;1727;42.624;23.406;2022-08-21T07:39:45;94316.63;;;27.57;64.21
3428;BME280;1727;42.624;23.406;2022-08-21T07:42:15;94303.09;;;27.35;66.28
3428;BME280;1727;42.624;23.406;2022-08-21T07:44:42;94297.16;;;27.33;67.61
3428;BME280;1727;42.624;23.406;2022-08-21T07:47:09;94306.22;;;27.27;64.27
3428;BME280;1727;42.624;23.406;2022-08-21T07:49:41;94302.66;;;27.04;64.66
3428;BME280;1727;42.624;23.406;2022-08-21T07:52:08;94295.44;;;26.60;64.97
3428;BME280;1727;42.624;23.406;2022-08-21T07:54:34;94297.22;;;26.37;67.02
3428;BME280;1727;42.624;23.406;2022-08-21T07:57:01;94295.47;;;26.03;67.46
3428;BME280;1727;42.624;23.406;2022-08-21T07:59:30;94295.75;;;25.89;68.40
3428;BME280;1727;42.624;23.406;2022-08-21T08:01:56;94295.44;;;25.62;68.79
3428;BME280;1727;42.624;23.406;2022-08-21T08:04:23;94288.00;;;25.53;70.93
3428;BME280;1727;42.624;23.406;2022-08-21T08:06:50;94298.63;;;25.48;71.28
3428;BME280;1727;42.624;23.406;2022-08-21T08:09:17;94291.97;;;25.39;71.33
3428;BME280;1727;42.624;23.406;2022-08-21T08:11:45;94295.47;;;25.39;72.00
3428;BME280;1727;42.624;23.406;2022-08-21T08:14:11;94287.53;;;25.56;73.88
3428;BME280;1727;42.624;23.406;2022-08-21T08:16:40;94292.28;;;25.77;72.20
3428;BME280;1727;42.624;23.406;2022-08-21T08:19:07;94297.34;;;25.74;72.59
3428;BME280;1727;42.624;23.406;2022-08-21T08:21:34;94304.69;;;25.55;72.77
3428;BME280;1727;42.624;23.406;2022-08-21T08:24:03;94295.97;;;25.36;73.77
3428;BME280;1727;42.624;23.406;2022-08-21T08:26:30;94297.63;;;25.25;74.48
3428;BME280;1727;42.624;23.406;2022-08-21T08:28:57;94284.56;;;25.17;75.30
3428;BME280;1727;42.624;23.406;2022-08-21T08:31:23;94294.22;;;24.95;77.93
3428;BME280;1727;42.624;23.406;2022-08-21T08:33:52;94295.72;;;24.91;76.10
3428;BME280;1727;42.624;23.406;2022-08-21T08:36:19;94297.81;;;24.89;75.86
3428;BME280;1727;42.624;23.406;2022-08-21T08:38:46;94300.94;;;24.86;76.39
3428;BME280;1727;42.624;23.406;2022-08-21T08:41:15;94304.09;;;24.83;76.92
3428;BME280;1727;42.624;23.406;2022-08-21T08:43:50;94302.69;;;24.80;77.87
3428;BME280;1727;42.624;23.406;2022-08-21T08:46:24;94293.28;;;24.89;78.10
3428;BME280;1727;42.624;23.406;2022-08-21T08:48:57;94296.41;;;24.86;74.88
3428;BME280;1727;42.624;23.406;2022-08-21T08:51:33;94289.88;;;24.82;74.87
3428;BME280;1727;42.624;23.406;2022-08-21T08:54:10;94286.84;;;24.79;76.52
3428;BME280;1727;42.624;23.406;2022-08-21T08:56:38;94286.59;;;24.68;77.46
3428;BME280;1727;42.624;23.406;2022-08-21T08:59:08;94281.19;;;24.57;76.63
3428;BME280;1727;42.624;23.406;2022-08-21T09:01:39;94286.13;;;24.60;76.69
3428;BME280;1727;42.624;23.406;2022-08-21T09:04:09;94287.31;;;24.64;77.80
3428;BME280;1727;42.624;23.406;2022-08-21T09:06:45;94274.59;;;24.59;79.53
3428;BME280;1727;42.624;23.406;2022-08-21T09:09:36;94279.34;;;24.57;81.87
3428;BME280;1727;42.624;23.406;2022-08-21T09:12:08;94274.66;;;24.53;78.13
3428;BME280;1727;42.624;23.406;2022-08-21T09:14:46;94271.50;;;24.56;79.97
3428;BME280;1727;42.624;23.406;2022-08-21T09:17:23;94262.22;;;24.70;80.44
3428;BME280;1727;42.624;23.406;2022-08-21T09:20:17;94264.44;;;24.85;79.49
3428;BME280;1727;42.624;23.406;2022-08-21T09:22:55;94264.69;;;24.95;77.10
3428;BME280;1727;42.624;23.406;2022-08-21T09:25:26;94268.41;;;24.94;75.58
3428;BME280;1727;42.624;23.406;2022-08-21T09:27:54;94260.59;;;25.04;77.91
3428;BME280;1727;42.624;23.406;2022-08-21T09:30:27;94257.69;;;25.17;77.83
3428;BME280;1727;42.624;23.406;2022-08-21T09:32:55;94267.13;;;25.31;78.00
3428;BME280;1727;42.624;23.406;2022-08-21T09:35:24;94256.00;;;25.51;75.86
3428;BME280;1727;42.624;23.406;2022-08-21T09:37:53;94258.06;;;25.61;74.52
3428;BME280;1727;42.624;23.406;2022-08-21T09:40:32;94262.59;;;25.72;73.51
3428;BME280;1727;42.624;23.406;2022-08-21T09:43:02;94263.78;;;25.76;72.94
3428;BME280;1727;42.624;23.406;2022-08-21T09:45:29;94259.22;;;25.77;74.17
3428;BME280;1727;42.624;23.406;2022-08-21T09:48:08;94259.00;;;25.67;73.79
3428;BME280;1727;42.624;23.406;2022-08-21T09:50:36;94262.03;;;25.58;73.65
3428;BME280;1727;42.624;23.406;2022-08-21T09:53:04;94266.94;;;25.61;74.42
3428;BME280;1727;42.624;23.406;2022-08-21T09:55:34;94261.56;;;25.61;73.94
3428;BME280;1727;42.624;23.406;2022-08-21T09:58:30;94258.63;;;25.63;73.38
3428;BME280;1727;42.624;23.406;2022-08-21T10:00:59;94252.59;;;25.56;73.95
3428;BME280;1727;42.624;23.406;2022-08-21T10:03:26;94249.69;;;25.46;74.91
3428;BME280;1727;42.624;23.406;2022-08-21T10:06:00;94252.97;;;25.36;75.54
3428;BME280;1727;42.624;23.406;2022-08-21T10:08:32;94250.44;;;25.29;75.30
3428;BME280;1727;42.624;23.406;2022-08-21T10:11:02;94244.94;;;25.24;75.84
3428;BME280;1727;42.624;23.406;2022-08-21T10:13:43;94244.63;;;25.21;76.05
3428;BME280;1727;42.624;23.406;2022-08-21T10:16:18;94237.72;;;25.13;76.44
3428;BME280;1727;42.624;23.406;2022-08-21T10:19:11;94246.13;;;25.05;76.35
3428;BME280;1727;42.624;23.406;2022-08-21T10:21:57;94239.94;;;25.05;76.96
3428;BME280;1727;42.624;23.406;2022-08-21T10:24:29;94235.06;;;25.01;77.55
3428;BME280;1727;42.624;23.406;2022-08-21T10:27:07;94241.09;;;25.09;78.47
3428;BME280;1727;42.624;23.406;2022-08-21T10:29:45;94241.34;;;25.07;77.77
3428;BME280;1727;42.624;23.406;2022-08-21T10:32:23;94240.97;;;25.15;77.94
3428;BME280;1727;42.624;23.406;2022-08-21T10:34:58;94235.75;;;25.20;76.20
3428;BME280;1727;42.624;23.406;2022-08-21T10:37:34;94233.53;;;25.17;75.15
3428;BME280;1727;42.624;23.406;2022-08-21T10:40:11;94240.41;;;25.25;74.13
3428;BME280;1727;42.624;23.406;2022-08-21T10:42:49;94225.88;;;25.38;74.48
3428;BME280;1727;42.624;23.406;2022-08-21T10:45:28;94227.41;;;25.45;74.81
3428;BME280;1727;42.624;23.406;2022-08-21T10:48:03;94219.28;;;25.57;73.29
3428;BME280;1727;42.624;23.406;2022-08-21T10:50:39;94223.22;;;25.78;73.09
3428;BME280;1727;42.624;23.406;2022-08-21T10:53:36;94215.75;;;25.97;71.94
3428;BME280;1727;42.624;23.406;2022-08-21T10:56:14;94212.34;;;26.01;70.90
3428;BME280;1727;42.624;23.406;2022-08-21T10:58:47;94211.09;;;25.92;70.34
3428;BME280;1727;42.624;23.406;2022-08-21T11:01:20;94208.47;;;26.09;70.71
3428;BME280;1727;42.624;23.406;2022-08-21T11:03:52;94200.81;;;26.17;69.36
3428;BME280;1727;42.624;23.406;2022-08-21T11:06:23;94200.94;;;25.94;68.07
3428;BME280;1727;42.624;23.406;2022-08-21T11:08:55;94196.16;;;26.13;68.53
3428;BME280;1727;42.624;23.406;2022-08-21T11:11:27;94193.25;;;26.31;69.88
3428;BME280;1727;42.624;23.406;2022-08-21T11:13:59;94190.31;;;26.49;71.99
3428;BME280;1727;42.624;23.406;2022-08-21T11:16:34;94184.69;;;26.51;69.60
3428;BME280;1727;42.624;23.406;2022-08-21T11:19:09;94181.44;;;26.49;69.96
3428;BME280;1727;42.624;23.406;2022-08-21T11:21:43;94178.34;;;26.40;67.42
3428;BME280;1727;42.624;23.406;2022-08-21T11:24:29;94183.25;;;26.43;67.19
3428;BME280;1727;42.624;23.406;2022-08-21T11:26:59;94180.09;;;26.18;68.35
3428;BME280;1727;42.624;23.406;2022-08-21T11:29:33;94181.31;;;26.27;69.22
3428;BME280;1727;42.624;23.406;2022-08-21T11:32:13;94176.25;;;26.31;69.36
3428;BME280;1727;42.624;23.406;2022-08-21T11:34:54;94183.97;;;25.93;69.03
3428;BME280;1727;42.624;23.406;2022-08-21T11:37:34;94174.16;;;26.16;70.76
3428;BME280;1727;42.624;23.406;2022-08-21T11:40:11;94170.97;;;26.19;71.67
3428;BME280;1727;42.624;23.406;2022-08-21T11:42:45;94166.25;;;26.26;70.74
3428;BME280;1727;42.624;23.406;2022-08-21T11:45:22;94169.66;;;26.05;70.98
3428;BME280;1727;42.624;23.406;2022-08-21T11:47:57;94173.09;;;26.17;70.76
3428;BME280;1727;42.624;23.406;2022-08-21T11:50:28;94172.25;;;26.00;69.44
3428;BME280;1727;42.624;23.406;2022-08-21T11:52:59;94173.19;;;26.05;69.50
3428;BME280;1727;42.624;23.406;2022-08-21T11:55:32;94178.59;;;25.93;67.07
3428;BME280;1727;42.624;23.406;2022-08-21T11:58:06;94164.75;;;26.02;68.22
3428;BME280;1727;42.624;23.406;2022-08-21T12:00:36;94160.22;;;26.02;67.68
3428;BME280;1727;42.624;23.406;2022-08-21T12:03:12;94159.00;;;26.10;68.59
3428;BME280;1727;42.624;23.406;2022-08-21T12:05:42;94154.00;;;26.02;66.77
3428;BME280;1727;42.624;23.406;2022-08-21T12:08:13;94153.53;;;26.05;67.55
3428;BME280;1727;42.624;23.406;2022-08-21T12:10:46;94144.06;;;25.85;66.05
3428;BME280;1727;42.624;23.406;2022-08-21T12:13:24;94152.53;;;25.77;65.37
3428;BME280;1727;42.624;23.406;2022-08-21T12:15:52;94154.75;;;25.69;68.23
3428;BME280;1727;42.624;23.406;2022-08-21T12:18:22;94154.88;;;25.45;67.88
3428;BME280;1727;42.624;23.406;2022-08-21T12:21:02;94157.03;;;25.20;68.83
3428;BME280;1727;42.624;23.406;2022-08-21T12:23:32;94166.19;;;25.36;69.38
3428;BME280;1727;42.624;23.406;2022-08-21T12:26:09;94157.47;;;25.28;68.76
3428;BME280;1727;42.624;23.406;2022-08-21T12:28:37;94160.13;;;25.40;71.18
3428;BME280;1727;42.624;23.406;2022-08-21T12:31:21;94167.94;;;25.42;69.01
3428;BME280;1727;42.624;23.406;2022-08-21T12:33:54;94166.75;;;25.49;68.94
3428;BME280;1727;42.624;23.406;2022-08-21T12:36:24;94161.63;;;25.48;72.27
3428;BME280;1727;42.624;23.406;2022-08-21T12:38:54;94160.56;;;25.49;72.97
3428;BME280;1727;42.624;23.406;2022-08-21T12:41:28;94153.91;;;25.51;74.33
3428;BME280;1727;42.624;23.406;2022-08-21T12:43:59;94155.78;;;25.51;74.59
3428;BME280;1727;42.624;23.406;2022-08-21T12:46:34;94156.81;;;25.50;74.65
3428;BME280;1727;42.624;23.406;2022-08-21T12:49:06;94156.13;;;25.43;75.28
3428;BME280;1727;42.624;23.406;2022-08-21T12:51:49;94144.22;;;25.39;76.20
3428;BME280;1727;42.624;23.406;2022-08-21T12:54:24;94148.47;;;25.35;76.56
3428;BME280;1727;42.624;23.406;2022-08-21T12:57:01;94136.75;;;25.41;77.67
3428;BME280;1727;42.624;23.406;2022-08-21T12:59:28;94135.69;;;25.42;77.77
3428;BME280;1727;42.624;23.406;2022-08-21T13:01:56;94133.56;;;25.44;78.36
3428;BME280;1727;42.624;23.406;2022-08-21T13:04:32;94133.00;;;25.42;78.61
3428;BME280;1727;42.624;23.406;2022-08-21T13:07:05;94133.41;;;25.33;77.59
3428;BME280;1727;42.624;23.406;2022-08-21T13:09:41;94130.38;;;25.30;77.91
3428;BME280;1727;42.624;23.406;2022-08-21T13:12:12;94133.69;;;25.20;78.26
3428;BME280;1727;42.624;23.406;2022-08-21T13:14:41;94135.09;;;25.23;77.42
3428;BME280;1727;42.624;23.406;2022-08-21T13:17:20;94137.19;;;25.21;77.22
3428;BME280;1727;42.624;23.406;2022-08-21T13:19:55;94126.13;;;25.17;77.72
3428;BME280;1727;42.624;23.406;2022-08-21T13:22:24;94119.78;;;25.23;78.95
3428;BME280;1727;42.624;23.406;2022-08-21T13:24:51;94130.84;;;25.27;77.99